sensor_id;sensor_type;location;lat;lon;timestamp;temperature;humidity
24035;DHT22;12242;50.952;4.678;2022-07-10T00:00:36;18.40;92.80
24035;DHT22;12242;50.952;4.678;2022-07-10T00:03:06;18.20;93.10
24035;DHT22;12242;50.952;4.678;2022-07-10T00:05:37;18.20;93.40
24035;DHT22;12242;50.952;4.678;2022-07-10T00:08:04;18.20;93.50
24035;DHT22;12242;50.952;4.678;2022-07-10T00:10:32;18.20;93.40
24035;DHT22;12242;50.952;4.678;2022-07-10T00:13:00;18.20;93.60
24035;DHT22;12242;50.952;4.678;2022-07-10T00:15:28;18.20;93.70
24035;DHT22;12242;50.952;4.678;2022-07-10T00:17:55;18.20;93.70
24035;DHT22;12242;50.952;4.678;2022-07-10T00:20:22;18.20;93.70
24035;DHT22;12242;50.952;4.678;2022-07-10T00:22:52;18.10;93.80
24035;DHT22;12242;50.952;4.678;2022-07-10T00:25:27;18.10;93.80
24035;DHT22;12242;50.952;4.678;2022-07-10T00:28:00;18.10;93.90
24035;DHT22;12242;50.952;4.678;2022-07-10T00:30:30;18.10;93.90
24035;DHT22;12242;50.952;4.678;2022-07-10T00:32:57;18.00;94.00
24035;DHT22;12242;50.952;4.678;2022-07-10T00:35:26;18.00;93.90
24035;DHT22;12242;50.952;4.678;2022-07-10T00:37:54;18.00;94.10
24035;DHT22;12242;50.952;4.678;2022-07-10T00:40:22;17.90;94.20
24035;DHT22;12242;50.952;4.678;2022-07-10T00:42:49;17.90;94.20
24035;DHT22;12242;50.952;4.678;2022-07-10T00:45:16;17.90;94.40
24035;DHT22;12242;50.952;4.678;2022-07-10T00:47:46;17.80;94.40
24035;DHT22;12242;50.952;4.678;2022-07-10T00:50:13;17.70;94.60
24035;DHT22;12242;50.952;4.678;2022-07-10T00:52:41;17.80;94.80
24035;DHT22;12242;50.952;4.678;2022-07-10T00:55:09;17.70;94.80
24035;DHT22;12242;50.952;4.678;2022-07-10T00:57:37;17.70;95.00
24035;DHT22;12242;50.952;4.678;2022-07-10T01:00:07;17.70;94.70
24035;DHT22;12242;50.952;4.678;2022-07-10T01:02:35;17.70;94.60
24035;DHT22;12242;50.952;4.678;2022-07-10T01:05:03;17.70;94.60
24035;DHT22;12242;50.952;4.678;2022-07-10T01:07:33;17.70;94.70
24035;DHT22;12242;50.952;4.678;2022-07-10T01:10:04;17.70;94.70
24035;DHT22;12242;50.952;4.678;2022-07-10T01:12:34;17.60;94.90
24035;DHT22;12242;50.952;4.678;2022-07-10T01:15:01;17.60;95.10
24035;DHT22;12242;50.952;4.678;2022-07-10T01:17:29;17.50;95.30
24035;DHT22;12242;50.952;4.678;2022-07-10T01:20:05;17.50;95.70
24035;DHT22;12242;50.952;4.678;2022-07-10T01:22:33;17.50;95.50
24035;DHT22;12242;50.952;4.678;2022-07-10T01:25:00;17.50;95.50
24035;DHT22;12242;50.952;4.678;2022-07-10T01:27:28;17.50;95.40
24035;DHT22;12242;50.952;4.678;2022-07-10T01:29:55;17.40;95.20
24035;DHT22;12242;50.952;4.678;2022-07-10T01:32:22;17.50;95.70
24035;DHT22;12242;50.952;4.678;2022-07-10T01:34:52;17.40;95.70
24035;DHT22;12242;50.952;4.678;2022-07-10T01:37:20;17.40;95.80
24035;DHT22;12242;50.952;4.678;2022-07-10T01:39:50;17.40;95.90
24035;DHT22;12242;50.952;4.678;2022-07-10T01:42:18;17.30;95.80
24035;DHT22;12242;50.952;4.678;2022-07-10T01:44:46;17.30;95.80
24035;DHT22;12242;50.952;4.678;2022-07-10T01:47:16;17.20;95.80
24035;DHT22;12242;50.952;4.678;2022-07-10T01:49:45;17.10;96.10
24035;DHT22;12242;50.952;4.678;2022-07-10T01:52:13;17.20;96.30
24035;DHT22;12242;50.952;4.678;2022-07-10T01:54:43;17.10;96.50
24035;DHT22;12242;50.952;4.678;2022-07-10T01:57:11;17.10;96.30
24035;DHT22;12242;50.952;4.678;2022-07-10T01:59:41;17.00;96.30
24035;DHT22;12242;50.952;4.678;2022-07-10T02:02:11;17.00;96.40
24035;DHT22;12242;50.952;4.678;2022-07-10T02:04:40;17.00;96.30
24035;DHT22;12242;50.952;4.678;2022-07-10T02:07:08;17.00;96.20
24035;DHT22;12242;50.952;4.678;2022-07-10T02:09:37;17.00;96.30
24035;DHT22;12242;50.952;4.678;2022-07-10T02:12:07;16.90;96.40
24035;DHT22;12242;50.952;4.678;2022-07-10T02:14:35;16.90;96.70
24035;DHT22;12242;50.952;4.678;2022-07-10T02:17:03;16.80;96.90
24035;DHT22;12242;50.952;4.678;2022-07-10T02:19:31;16.80;96.70
24035;DHT22;12242;50.952;4.678;2022-07-10T02:22:01;16.80;96.50
24035;DHT22;12242;50.952;4.678;2022-07-10T02:24:28;16.90;96.60
24035;DHT22;12242;50.952;4.678;2022-07-10T02:26:58;16.80;96.90
24035;DHT22;12242;50.952;4.678;2022-07-10T02:29:28;16.80;97.10
24035;DHT22;12242;50.952;4.678;2022-07-10T02:31:55;16.80;97.10
24035;DHT22;12242;50.952;4.678;2022-07-10T02:34:23;16.80;97.30
24035;DHT22;12242;50.952;4.678;2022-07-10T02:36:53;16.70;97.30
24035;DHT22;12242;50.952;4.678;2022-07-10T02:39:20;16.70;97.30
24035;DHT22;12242;50.952;4.678;2022-07-10T02:41:53;16.60;97.30
24035;DHT22;12242;50.952;4.678;2022-07-10T02:44:20;16.60;97.30
24035;DHT22;12242;50.952;4.678;2022-07-10T02:46:47;16.60;97.40
24035;DHT22;12242;50.952;4.678;2022-07-10T02:49:15;16.50;97.40
24035;DHT22;12242;50.952;4.678;2022-07-10T02:51:45;16.50;97.50
24035;DHT22;12242;50.952;4.678;2022-07-10T02:54:15;16.50;97.60
24035;DHT22;12242;50.952;4.678;2022-07-10T02:56:42;16.50;97.50
24035;DHT22;12242;50.952;4.678;2022-07-10T02:59:10;16.50;97.60
24035;DHT22;12242;50.952;4.678;2022-07-10T03:01:39;16.40;97.70
24035;DHT22;12242;50.952;4.678;2022-07-10T03:04:09;16.40;97.80
24035;DHT22;12242;50.952;4.678;2022-07-10T03:06:37;16.40;98.40
24035;DHT22;12242;50.952;4.678;2022-07-10T03:09:04;16.40;98.20
24035;DHT22;12242;50.952;4.678;2022-07-10T03:11:32;16.40;98.10
24035;DHT22;12242;50.952;4.678;2022-07-10T03:13:59;16.30;98.20
24035;DHT22;12242;50.952;4.678;2022-07-10T03:16:26;16.40;98.30
24035;DHT22;12242;50.952;4.678;2022-07-10T03:18:58;16.30;98.40
24035;DHT22;12242;50.952;4.678;2022-07-10T03:21:25;16.30;98.50
24035;DHT22;12242;50.952;4.678;2022-07-10T03:23:53;16.30;98.60
24035;DHT22;12242;50.952;4.678;2022-07-10T03:26:20;16.30;98.90
24035;DHT22;12242;50.952;4.678;2022-07-10T03:28:47;16.30;98.90
24035;DHT22;12242;50.952;4.678;2022-07-10T03:31:15;16.20;99.00
24035;DHT22;12242;50.952;4.678;2022-07-10T03:33:44;16.20;99.30
24035;DHT22;12242;50.952;4.678;2022-07-10T03:36:12;16.20;99.20
24035;DHT22;12242;50.952;4.678;2022-07-10T03:38:41;16.20;99.20
24035;DHT22;12242;50.952;4.678;2022-07-10T03:41:13;16.30;99.20
24035;DHT22;12242;50.952;4.678;2022-07-10T03:43:41;16.30;99.30
24035;DHT22;12242;50.952;4.678;2022-07-10T03:46:11;16.20;99.30
24035;DHT22;12242;50.952;4.678;2022-07-10T03:48:40;16.20;99.20
24035;DHT22;12242;50.952;4.678;2022-07-10T03:51:08;16.20;99.20
24035;DHT22;12242;50.952;4.678;2022-07-10T03:53:38;16.20;99.10
24035;DHT22;12242;50.952;4.678;2022-07-10T03:56:08;16.20;99.20
24035;DHT22;12242;50.952;4.678;2022-07-10T03:58:35;16.10;99.00
24035;DHT22;12242;50.952;4.678;2022-07-10T04:01:03;16.20;99.10
24035;DHT22;12242;50.952;4.678;2022-07-10T04:03:30;16.10;99.10
24035;DHT22;12242;50.952;4.678;2022-07-10T04:05:57;16.10;99.40
24035;DHT22;12242;50.952;4.678;2022-07-10T04:08:24;16.00;99.60
24035;DHT22;12242;50.952;4.678;2022-07-10T04:10:52;16.00;99.80
24035;DHT22;12242;50.952;4.678;2022-07-10T04:13:24;16.00;99.90
24035;DHT22;12242;50.952;4.678;2022-07-10T04:15:52;16.00;99.90
24035;DHT22;12242;50.952;4.678;2022-07-10T04:18:19;16.00;99.90
24035;DHT22;12242;50.952;4.678;2022-07-10T04:20:47;16.00;99.90
24035;DHT22;12242;50.952;4.678;2022-07-10T04:23:14;16.00;99.90
24035;DHT22;12242;50.952;4.678;2022-07-10T04:25:44;16.10;99.90
24035;DHT22;12242;50.952;4.678;2022-07-10T04:28:11;16.00;99.90
24035;DHT22;12242;50.952;4.678;2022-07-10T04:30:38;16.10;99.90
24035;DHT22;12242;50.952;4.678;2022-07-10T04:33:06;16.10;99.90
24035;DHT22;12242;50.952;4.678;2022-07-10T04:35:33;16.10;99.90
24035;DHT22;12242;50.952;4.678;2022-07-10T04:38:00;16.10;99.90
24035;DHT22;12242;50.952;4.678;2022-07-10T04:40:28;16.10;99.90
24035;DHT22;12242;50.952;4.678;2022-07-10T04:42:55;16.10;99.90
24035;DHT22;12242;50.952;4.678;2022-07-10T04:45:24;16.20;99.90
24035;DHT22;12242;50.952;4.678;2022-07-10T04:47:54;16.20;99.90
24035;DHT22;12242;50.952;4.678;2022-07-10T04:50:21;16.40;99.90
24035;DHT22;12242;50.952;4.678;2022-07-10T04:52:51;16.50;99.90
24035;DHT22;12242;50.952;4.678;2022-07-10T04:55:21;16.50;99.90
24035;DHT22;12242;50.952;4.678;2022-07-10T04:57:53;16.60;99.90
24035;DHT22;12242;50.952;4.678;2022-07-10T05:00:21;16.70;99.90
24035;DHT22;12242;50.952;4.678;2022-07-10T05:02:50;16.80;99.90
24035;DHT22;12242;50.952;4.678;2022-07-10T05:05:17;16.80;99.90
24035;DHT22;12242;50.952;4.678;2022-07-10T05:07:45;16.90;99.90
24035;DHT22;12242;50.952;4.678;2022-07-10T05:10:12;16.90;99.90
24035;DHT22;12242;50.952;4.678;2022-07-10T05:12:39;16.90;99.90
24035;DHT22;12242;50.952;4.678;2022-07-10T05:15:07;17.00;99.90
24035;DHT22;12242;50.952;4.678;2022-07-10T05:17:35;17.00;99.90
24035;DHT22;12242;50.952;4.678;2022-07-10T05:20:03;17.00;99.90
24035;DHT22;12242;50.952;4.678;2022-07-10T05:22:31;17.10;99.90
24035;DHT22;12242;50.952;4.678;2022-07-10T05:24:59;17.10;99.90
24035;DHT22;12242;50.952;4.678;2022-07-10T05:27:27;17.10;99.90
24035;DHT22;12242;50.952;4.678;2022-07-10T05:29:55;17.20;99.90
24035;DHT22;12242;50.952;4.678;2022-07-10T05:32:24;17.30;99.90
24035;DHT22;12242;50.952;4.678;2022-07-10T05:34:57;17.40;99.90
24035;DHT22;12242;50.952;4.678;2022-07-10T05:37:28;17.40;99.90
24035;DHT22;12242;50.952;4.678;2022-07-10T05:39:59;17.40;99.90
24035;DHT22;12242;50.952;4.678;2022-07-10T05:42:26;17.50;99.90
24035;DHT22;12242;50.952;4.678;2022-07-10T05:44:54;17.50;99.90
24035;DHT22;12242;50.952;4.678;2022-07-10T05:47:21;17.50;99.90
24035;DHT22;12242;50.952;4.678;2022-07-10T05:49:51;17.70;99.90
24035;DHT22;12242;50.952;4.678;2022-07-10T05:52:18;17.70;99.90
24035;DHT22;12242;50.952;4.678;2022-07-10T05:54:46;17.70;99.90
24035;DHT22;12242;50.952;4.678;2022-07-10T05:57:13;17.90;99.90
24035;DHT22;12242;50.952;4.678;2022-07-10T05:59:43;17.90;99.90
24035;DHT22;12242;50.952;4.678;2022-07-10T06:02:10;17.90;99.90
24035;DHT22;12242;50.952;4.678;2022-07-10T06:04:41;18.00;99.90
24035;DHT22;12242;50.952;4.678;2022-07-10T06:07:11;18.00;99.90
24035;DHT22;12242;50.952;4.678;2022-07-10T06:09:41;18.10;99.90
24035;DHT22;12242;50.952;4.678;2022-07-10T06:12:08;18.10;99.90
24035;DHT22;12242;50.952;4.678;2022-07-10T06:14:38;18.00;99.90
24035;DHT22;12242;50.952;4.678;2022-07-10T06:17:05;18.10;99.90
24035;DHT22;12242;50.952;4.678;2022-07-10T06:19:34;18.00;99.90
24035;DHT22;12242;50.952;4.678;2022-07-10T06:22:02;18.00;99.90
24035;DHT22;12242;50.952;4.678;2022-07-10T06:24:48;18.10;99.90
24035;DHT22;12242;50.952;4.678;2022-07-10T06:27:16;18.10;99.90
24035;DHT22;12242;50.952;4.678;2022-07-10T06:29:43;18.20;99.90
24035;DHT22;12242;50.952;4.678;2022-07-10T06:32:17;18.30;99.90
24035;DHT22;12242;50.952;4.678;2022-07-10T06:34:45;18.50;99.90
24035;DHT22;12242;50.952;4.678;2022-07-10T06:37:12;18.60;99.90
24035;DHT22;12242;50.952;4.678;2022-07-10T06:39:40;18.70;99.90
24035;DHT22;12242;50.952;4.678;2022-07-10T06:42:08;18.70;99.90
24035;DHT22;12242;50.952;4.678;2022-07-10T06:44:35;18.90;99.90
24035;DHT22;12242;50.952;4.678;2022-07-10T06:47:03;19.00;99.90
24035;DHT22;12242;50.952;4.678;2022-07-10T06:49:55;19.00;99.90
24035;DHT22;12242;50.952;4.678;2022-07-10T06:52:25;19.00;99.90
24035;DHT22;12242;50.952;4.678;2022-07-10T06:54:53;19.10;99.90
24035;DHT22;12242;50.952;4.678;2022-07-10T06:57:20;19.20;99.90
24035;DHT22;12242;50.952;4.678;2022-07-10T06:59:48;19.20;99.90
24035;DHT22;12242;50.952;4.678;2022-07-10T07:02:16;19.30;99.90
24035;DHT22;12242;50.952;4.678;2022-07-10T07:04:44;19.00;99.90
24035;DHT22;12242;50.952;4.678;2022-07-10T07:07:17;18.60;99.90
24035;DHT22;12242;50.952;4.678;2022-07-10T07:09:51;18.80;99.90
24035;DHT22;12242;50.952;4.678;2022-07-10T07:12:19;19.00;99.90
24035;DHT22;12242;50.952;4.678;2022-07-10T07:14:47;19.20;99.90
24035;DHT22;12242;50.952;4.678;2022-07-10T07:17:17;19.30;99.90
24035;DHT22;12242;50.952;4.678;2022-07-10T07:19:55;19.50;99.90
24035;DHT22;12242;50.952;4.678;2022-07-10T07:22:41;19.70;99.90
24035;DHT22;12242;50.952;4.678;2022-07-10T07:25:36;19.80;99.90
24035;DHT22;12242;50.952;4.678;2022-07-10T07:28:05;19.80;99.90
24035;DHT22;12242;50.952;4.678;2022-07-10T07:30:32;20.00;99.80
24035;DHT22;12242;50.952;4.678;2022-07-10T07:33:07;20.10;99.90
24035;DHT22;12242;50.952;4.678;2022-07-10T07:35:34;20.20;99.00
24035;DHT22;12242;50.952;4.678;2022-07-10T07:38:02;20.40;99.90
24035;DHT22;12242;50.952;4.678;2022-07-10T07:40:30;20.70;99.00
24035;DHT22;12242;50.952;4.678;2022-07-10T07:42:58;21.10;97.60
24035;DHT22;12242;50.952;4.678;2022-07-10T07:45:29;21.30;97.10
24035;DHT22;12242;50.952;4.678;2022-07-10T07:48:01;21.80;98.00
24035;DHT22;12242;50.952;4.678;2022-07-10T07:50:32;22.20;97.20
24035;DHT22;12242;50.952;4.678;2022-07-10T07:53:02;22.50;95.90
24035;DHT22;12242;50.952;4.678;2022-07-10T07:55:36;22.90;96.80
24035;DHT22;12242;50.952;4.678;2022-07-10T07:58:06;23.50;94.80
24035;DHT22;12242;50.952;4.678;2022-07-10T08:00:36;24.00;94.00
24035;DHT22;12242;50.952;4.678;2022-07-10T08:03:05;24.30;91.50
24035;DHT22;12242;50.952;4.678;2022-07-10T08:05:32;24.30;91.10
24035;DHT22;12242;50.952;4.678;2022-07-10T08:08:00;24.20;91.30
24035;DHT22;12242;50.952;4.678;2022-07-10T08:10:34;24.60;91.40
24035;DHT22;12242;50.952;4.678;2022-07-10T08:13:08;24.70;89.90
24035;DHT22;12242;50.952;4.678;2022-07-10T08:15:35;25.30;90.30
24035;DHT22;12242;50.952;4.678;2022-07-10T08:18:03;25.90;89.20
24035;DHT22;12242;50.952;4.678;2022-07-10T08:20:31;26.40;85.50
24035;DHT22;12242;50.952;4.678;2022-07-10T08:22:59;26.80;85.00
24035;DHT22;12242;50.952;4.678;2022-07-10T08:25:30;27.20;83.10
24035;DHT22;12242;50.952;4.678;2022-07-10T08:28:03;26.80;82.40
24035;DHT22;12242;50.952;4.678;2022-07-10T08:30:32;26.70;83.00
24035;DHT22;12242;50.952;4.678;2022-07-10T08:33:01;27.30;83.40
24035;DHT22;12242;50.952;4.678;2022-07-10T08:35:28;26.60;81.90
24035;DHT22;12242;50.952;4.678;2022-07-10T08:37:57;26.90;81.90
24035;DHT22;12242;50.952;4.678;2022-07-10T08:40:25;27.40;81.80
24035;DHT22;12242;50.952;4.678;2022-07-10T08:42:53;27.50;81.10
24035;DHT22;12242;50.952;4.678;2022-07-10T08:45:21;28.00;79.10
24035;DHT22;12242;50.952;4.678;2022-07-10T08:47:49;27.10;79.60
24035;DHT22;12242;50.952;4.678;2022-07-10T08:50:21;26.70;80.00
24035;DHT22;12242;50.952;4.678;2022-07-10T08:53:12;26.50;81.10
24035;DHT22;12242;50.952;4.678;2022-07-10T08:55:41;26.10;81.70
24035;DHT22;12242;50.952;4.678;2022-07-10T08:58:15;26.10;83.40
24035;DHT22;12242;50.952;4.678;2022-07-10T09:00:43;26.50;82.80
24035;DHT22;12242;50.952;4.678;2022-07-10T09:03:11;27.00;80.00
24035;DHT22;12242;50.952;4.678;2022-07-10T09:05:39;26.90;79.00
24035;DHT22;12242;50.952;4.678;2022-07-10T09:08:27;26.40;79.50
24035;DHT22;12242;50.952;4.678;2022-07-10T09:11:16;26.00;81.10
24035;DHT22;12242;50.952;4.678;2022-07-10T09:13:53;25.60;82.10
24035;DHT22;12242;50.952;4.678;2022-07-10T09:16:28;25.20;83.30
24035;DHT22;12242;50.952;4.678;2022-07-10T09:19:13;25.30;83.80
24035;DHT22;12242;50.952;4.678;2022-07-10T09:21:41;26.00;84.90
24035;DHT22;12242;50.952;4.678;2022-07-10T09:24:09;26.70;84.60
24035;DHT22;12242;50.952;4.678;2022-07-10T09:26:38;27.60;85.00
24035;DHT22;12242;50.952;4.678;2022-07-10T09:29:10;28.30;77.40
24035;DHT22;12242;50.952;4.678;2022-07-10T09:31:56;28.50;76.50
24035;DHT22;12242;50.952;4.678;2022-07-10T09:34:40;28.80;77.40
24035;DHT22;12242;50.952;4.678;2022-07-10T09:37:24;28.30;77.00
24035;DHT22;12242;50.952;4.678;2022-07-10T09:40:02;28.80;75.30
24035;DHT22;12242;50.952;4.678;2022-07-10T09:42:41;28.80;77.10
24035;DHT22;12242;50.952;4.678;2022-07-10T09:45:14;29.30;78.00
24035;DHT22;12242;50.952;4.678;2022-07-10T09:52:58;28.30;73.30
24035;DHT22;12242;50.952;4.678;2022-07-10T09:55:34;28.30;76.10
24035;DHT22;12242;50.952;4.678;2022-07-10T09:58:08;28.10;76.00
24035;DHT22;12242;50.952;4.678;2022-07-10T10:00:39;27.80;76.40
24035;DHT22;12242;50.952;4.678;2022-07-10T10:03:10;27.20;76.00
24035;DHT22;12242;50.952;4.678;2022-07-10T10:05:55;26.70;79.20
24035;DHT22;12242;50.952;4.678;2022-07-10T10:08:59;26.80;77.70
24035;DHT22;12242;50.952;4.678;2022-07-10T10:11:32;26.00;77.50
24035;DHT22;12242;50.952;4.678;2022-07-10T10:14:01;25.80;82.10
24035;DHT22;12242;50.952;4.678;2022-07-10T10:16:31;24.90;82.10
24035;DHT22;12242;50.952;4.678;2022-07-10T10:19:04;24.80;83.80
24035;DHT22;12242;50.952;4.678;2022-07-10T10:21:53;24.90;83.20
24035;DHT22;12242;50.952;4.678;2022-07-10T10:24:22;24.90;84.60
24035;DHT22;12242;50.952;4.678;2022-07-10T10:26:52;25.00;85.30
24035;DHT22;12242;50.952;4.678;2022-07-10T10:29:19;25.00;83.40
24035;DHT22;12242;50.952;4.678;2022-07-10T10:31:50;24.70;82.80
24035;DHT22;12242;50.952;4.678;2022-07-10T10:34:44;24.50;85.40
24035;DHT22;12242;50.952;4.678;2022-07-10T10:39:59;24.70;84.10
24035;DHT22;12242;50.952;4.678;2022-07-10T10:45:25;24.90;84.90
24035;DHT22;12242;50.952;4.678;2022-07-10T10:48:09;24.90;84.20
24035;DHT22;12242;50.952;4.678;2022-07-10T10:50:56;24.40;83.40
24035;DHT22;12242;50.952;4.678;2022-07-10T10:53:27;24.40;88.40
24035;DHT22;12242;50.952;4.678;2022-07-10T10:56:21;24.10;85.80
24035;DHT22;12242;50.952;4.678;2022-07-10T10:58:52;24.20;86.70
24035;DHT22;12242;50.952;4.678;2022-07-10T11:06:42;24.30;85.30
24035;DHT22;12242;50.952;4.678;2022-07-10T11:14:32;24.10;88.10
24035;DHT22;12242;50.952;4.678;2022-07-10T11:17:00;24.00;88.20
24035;DHT22;12242;50.952;4.678;2022-07-10T11:19:30;24.10;88.60
24035;DHT22;12242;50.952;4.678;2022-07-10T11:22:21;24.30;88.30
24035;DHT22;12242;50.952;4.678;2022-07-10T11:28:08;25.40;87.40
24035;DHT22;12242;50.952;4.678;2022-07-10T11:30:53;26.00;86.30
24035;DHT22;12242;50.952;4.678;2022-07-10T11:33:21;26.50;87.90
24035;DHT22;12242;50.952;4.678;2022-07-10T11:35:51;27.50;84.90
24035;DHT22;12242;50.952;4.678;2022-07-10T11:38:21;28.40;80.90
24035;DHT22;12242;50.952;4.678;2022-07-10T11:40:49;28.50;79.10
24035;DHT22;12242;50.952;4.678;2022-07-10T11:43:17;28.80;80.10
24035;DHT22;12242;50.952;4.678;2022-07-10T11:45:48;28.80;78.50
24035;DHT22;12242;50.952;4.678;2022-07-10T11:48:20;28.60;78.90
24035;DHT22;12242;50.952;4.678;2022-07-10T11:50:51;28.40;75.50
24035;DHT22;12242;50.952;4.678;2022-07-10T11:53:25;27.50;77.10
24035;DHT22;12242;50.952;4.678;2022-07-10T11:55:52;27.00;82.70
24035;DHT22;12242;50.952;4.678;2022-07-10T11:58:23;27.00;81.60
24035;DHT22;12242;50.952;4.678;2022-07-10T12:01:03;26.80;81.20
24035;DHT22;12242;50.952;4.678;2022-07-10T12:03:34;26.50;81.70
24035;DHT22;12242;50.952;4.678;2022-07-10T12:06:06;26.90;85.20
24035;DHT22;12242;50.952;4.678;2022-07-10T12:08:46;27.10;82.10
24035;DHT22;12242;50.952;4.678;2022-07-10T12:11:19;26.70;84.60
24035;DHT22;12242;50.952;4.678;2022-07-10T12:13:51;26.90;80.90
24035;DHT22;12242;50.952;4.678;2022-07-10T12:16:22;26.70;84.00
24035;DHT22;12242;50.952;4.678;2022-07-10T12:18:50;26.90;81.80
24035;DHT22;12242;50.952;4.678;2022-07-10T12:21:18;27.00;82.70
24035;DHT22;12242;50.952;4.678;2022-07-10T12:23:46;27.20;82.80
24035;DHT22;12242;50.952;4.678;2022-07-10T12:26:16;27.40;80.80
24035;DHT22;12242;50.952;4.678;2022-07-10T12:28:53;27.40;81.10
24035;DHT22;12242;50.952;4.678;2022-07-10T12:31:22;27.50;81.70
24035;DHT22;12242;50.952;4.678;2022-07-10T12:33:55;27.40;79.90
24035;DHT22;12242;50.952;4.678;2022-07-10T12:36:27;27.00;79.30
24035;DHT22;12242;50.952;4.678;2022-07-10T12:39:07;26.80;82.30
24035;DHT22;12242;50.952;4.678;2022-07-10T12:41:52;26.60;82.30
24035;DHT22;12242;50.952;4.678;2022-07-10T12:44:43;26.50;82.90
24035;DHT22;12242;50.952;4.678;2022-07-10T12:47:16;26.60;86.20
24035;DHT22;12242;50.952;4.678;2022-07-10T12:50:04;27.20;86.50
24035;DHT22;12242;50.952;4.678;2022-07-10T12:52:38;27.20;81.10
24035;DHT22;12242;50.952;4.678;2022-07-10T12:55:15;26.70;82.70
24035;DHT22;12242;50.952;4.678;2022-07-10T12:58:03;26.90;86.90
24035;DHT22;12242;50.952;4.678;2022-07-10T13:00:33;27.20;82.40
24035;DHT22;12242;50.952;4.678;2022-07-10T13:03:16;26.90;83.60
24035;DHT22;12242;50.952;4.678;2022-07-10T13:05:44;26.70;82.10
24035;DHT22;12242;50.952;4.678;2022-07-10T13:08:22;26.80;84.90
24035;DHT22;12242;50.952;4.678;2022-07-10T13:10:53;26.50;84.90
24035;DHT22;12242;50.952;4.678;2022-07-10T13:13:22;26.80;83.10
24035;DHT22;12242;50.952;4.678;2022-07-10T13:15:53;27.10;84.70
24035;DHT22;12242;50.952;4.678;2022-07-10T13:18:26;27.40;84.00
24035;DHT22;12242;50.952;4.678;2022-07-10T13:20:57;27.60;81.90
24035;DHT22;12242;50.952;4.678;2022-07-10T13:23:29;27.90;84.20
24035;DHT22;12242;50.952;4.678;2022-07-10T13:25:59;28.20;81.60
24035;DHT22;12242;50.952;4.678;2022-07-10T13:28:30;28.50;79.90
24035;DHT22;12242;50.952;4.678;2022-07-10T13:31:00;28.40;79.00
24035;DHT22;12242;50.952;4.678;2022-07-10T13:33:30;28.20;80.90
24035;DHT22;12242;50.952;4.678;2022-07-10T13:36:00;28.50;79.80
24035;DHT22;12242;50.952;4.678;2022-07-10T13:38:28;28.70;79.70
24035;DHT22;12242;50.952;4.678;2022-07-10T13:40:58;28.80;79.50
24035;DHT22;12242;50.952;4.678;2022-07-10T13:43:25;28.80;77.60
24035;DHT22;12242;50.952;4.678;2022-07-10T13:46:00;28.60;78.40
24035;DHT22;12242;50.952;4.678;2022-07-10T13:48:30;28.50;79.10
24035;DHT22;12242;50.952;4.678;2022-07-10T13:50:58;28.00;76.70
24035;DHT22;12242;50.952;4.678;2022-07-10T13:53:27;27.80;79.30
24035;DHT22;12242;50.952;4.678;2022-07-10T13:55:55;27.80;82.40
24035;DHT22;12242;50.952;4.678;2022-07-10T13:58:30;27.50;80.70
24035;DHT22;12242;50.952;4.678;2022-07-10T14:00:59;27.70;80.70
24035;DHT22;12242;50.952;4.678;2022-07-10T14:03:27;27.90;80.50
24035;DHT22;12242;50.952;4.678;2022-07-10T14:05:55;27.90;80.10
24035;DHT22;12242;50.952;4.678;2022-07-10T14:08:23;27.90;80.80
24035;DHT22;12242;50.952;4.678;2022-07-10T14:10:51;27.90;79.80
24035;DHT22;12242;50.952;4.678;2022-07-10T14:13:22;27.80;81.20
24035;DHT22;12242;50.952;4.678;2022-07-10T14:15:49;28.00;84.20
24035;DHT22;12242;50.952;4.678;2022-07-10T14:18:19;28.20;80.00
24035;DHT22;12242;50.952;4.678;2022-07-10T14:21:06;28.20;78.80
24035;DHT22;12242;50.952;4.678;2022-07-10T14:23:37;28.20;78.30
24035;DHT22;12242;50.952;4.678;2022-07-10T14:26:11;28.20;79.30
24035;DHT22;12242;50.952;4.678;2022-07-10T14:28:41;28.10;80.10
24035;DHT22;12242;50.952;4.678;2022-07-10T14:31:10;27.60;83.20
24035;DHT22;12242;50.952;4.678;2022-07-10T14:33:38;27.80;82.30
24035;DHT22;12242;50.952;4.678;2022-07-10T14:36:08;27.80;81.80
24035;DHT22;12242;50.952;4.678;2022-07-10T14:38:36;27.60;79.90
24035;DHT22;12242;50.952;4.678;2022-07-10T14:41:04;27.50;79.50
24035;DHT22;12242;50.952;4.678;2022-07-10T14:43:35;27.50;80.80
24035;DHT22;12242;50.952;4.678;2022-07-10T14:46:04;27.60;81.30
24035;DHT22;12242;50.952;4.678;2022-07-10T14:48:36;27.20;80.00
24035;DHT22;12242;50.952;4.678;2022-07-10T14:51:04;27.20;81.90
24035;DHT22;12242;50.952;4.678;2022-07-10T14:53:32;27.10;82.00
24035;DHT22;12242;50.952;4.678;2022-07-10T14:56:03;27.20;83.70
24035;DHT22;12242;50.952;4.678;2022-07-10T14:58:32;27.40;83.50
24035;DHT22;12242;50.952;4.678;2022-07-10T15:01:22;27.10;80.70
24035;DHT22;12242;50.952;4.678;2022-07-10T15:03:50;26.80;81.60
24035;DHT22;12242;50.952;4.678;2022-07-10T15:06:17;27.00;82.00
24035;DHT22;12242;50.952;4.678;2022-07-10T15:08:44;27.10;82.80
24035;DHT22;12242;50.952;4.678;2022-07-10T15:11:12;27.20;82.90
24035;DHT22;12242;50.952;4.678;2022-07-10T15:13:43;27.10;80.50
24035;DHT22;12242;50.952;4.678;2022-07-10T15:16:13;27.20;81.10
24035;DHT22;12242;50.952;4.678;2022-07-10T15:18:43;27.30;81.40
24035;DHT22;12242;50.952;4.678;2022-07-10T15:21:11;27.20;82.20
24035;DHT22;12242;50.952;4.678;2022-07-10T15:23:39;27.20;82.20
24035;DHT22;12242;50.952;4.678;2022-07-10T15:26:08;27.10;83.30
24035;DHT22;12242;50.952;4.678;2022-07-10T15:28:36;26.90;82.80
24035;DHT22;12242;50.952;4.678;2022-07-10T15:31:04;26.80;80.70
24035;DHT22;12242;50.952;4.678;2022-07-10T15:33:35;26.60;82.60
24035;DHT22;12242;50.952;4.678;2022-07-10T15:36:04;26.40;80.80
24035;DHT22;12242;50.952;4.678;2022-07-10T15:38:32;26.40;82.80
24035;DHT22;12242;50.952;4.678;2022-07-10T15:41:02;26.30;83.30
24035;DHT22;12242;50.952;4.678;2022-07-10T15:43:29;26.30;82.40
24035;DHT22;12242;50.952;4.678;2022-07-10T15:46:09;26.40;84.00
24035;DHT22;12242;50.952;4.678;2022-07-10T15:48:36;26.30;83.10
24035;DHT22;12242;50.952;4.678;2022-07-10T15:51:04;26.40;83.00
24035;DHT22;12242;50.952;4.678;2022-07-10T15:53:32;26.50;83.30
24035;DHT22;12242;50.952;4.678;2022-07-10T15:55:59;26.70;85.80
24035;DHT22;12242;50.952;4.678;2022-07-10T15:58:26;26.50;80.50
24035;DHT22;12242;50.952;4.678;2022-07-10T16:00:54;26.10;83.00
24035;DHT22;12242;50.952;4.678;2022-07-10T16:03:22;26.10;82.40
24035;DHT22;12242;50.952;4.678;2022-07-10T16:05:52;26.20;82.80
24035;DHT22;12242;50.952;4.678;2022-07-10T16:08:22;26.10;80.80
24035;DHT22;12242;50.952;4.678;2022-07-10T16:10:50;26.00;82.30
24035;DHT22;12242;50.952;4.678;2022-07-10T16:13:18;25.90;82.30
24035;DHT22;12242;50.952;4.678;2022-07-10T16:15:52;26.00;82.30